KGWO/GWO METAR and TAF weather

Enter ICAO airport designator
Station Type Date Time Source
KGWO METAR 2022/06/30 12:53 UTC NOAA

KGWO 301253Z AUTO 09003KT 10SM CLR 26/22 A3014 RMK AO2 SLP205 T02610217


Station Type Date Time Source
KGWO Decoded METAR 2022/06/30 12:53 UTC NOAA

GREENWOOD-LEFLORE AIRPORT, MS, United States (KGWO) 33-30N 090-05W 44M
Jun 30, 2022 - 08:53 AM EDT / 2022.06.30 1253 UTC
Wind: from the E (090 degrees) at 3 MPH (3 KT):0
Visibility: 10 mile(s):0
Sky conditions: clear
Temperature: 79.0 F (26.1 C)
Dew Point: 71.1 F (21.7 C)
Relative Humidity: 76%
Pressure (altimeter): 30.14 in. Hg (1020 hPa)
ob: KGWO 301253Z AUTO 09003KT 10SM CLR 26/22 A3014 RMK AO2 SLP205 T02610217
cycle: 13

Station Type Date Time Source
KGWO TAF 2022/06/30 12:22 UTC NOAA

TAF KGWO 301120Z 3012/0112 18004KT P6SM SCT060
FM301900 15008KT P6SM VCSH BKN040
FM302100 15008KT P6SM -TSRA BKN035CB
FM010100 13007KT P6SM -RA OVC120
FM010300 14006KT P6SM OVC250

Example: see airport list